This is the latest recevied weather packets stored in our database for station/object SQ5SUI-3. If no packets are shown the sender has not sent any weather packets the latest 10 day(s).
| Time | Temp. | Humidity | Pressure | Rain* | Wind** | Luminosity | Snow |
|---|---|---|---|---|---|---|---|
| 1778112208 | 15.56° C | 70% | 1021.6 hPa | 0 mm | - | - | - |
| 1778110410 | 16.11° C | 68% | 1021.4 hPa | 0 mm | - | - | - |
| 1778108609 | 14.44° C | 73% | 1022 hPa | 0 mm | - | - | - |
| 1778106810 | 15° C | 69% | 1022.1 hPa | 0 mm | - | - | - |
| 1778105010 | 16.11° C | 63% | 1022.2 hPa | 0 mm | - | - | - |
| 1778103209 | 17.78° C | 58% | 1022.2 hPa | 0 mm | - | - | - |
| 1778101408 | 17.78° C | 58% | 1021.6 hPa | 0 mm | - | - | - |
| 1778099609 | 18.33° C | 62% | 1021.7 hPa | 0 mm | - | - | - |
| 1778097810 | 18.33° C | 62% | 1021.9 hPa | 0 mm | - | - | - |
| 1778096010 | 15.56° C | 63% | 1022.3 hPa | 0 mm | - | - | - |
| 1778094209 | 15.56° C | 65% | 1022.6 hPa | 0 mm | - | - | - |
| 1778092408 | 16.67° C | 61% | 1023.2 hPa | 0 mm | - | - | - |
| 1778090610 | 19.44° C | 51% | 1023.6 hPa | 0 mm | - | - | - |
| 1778088810 | 22.22° C | 40% | 1023.7 hPa | 0 mm | - | - | - |
| 1778087010 | 25.56° C | 33% | 1024 hPa | 0 mm | - | - | - |
| 1778085208 | 24.44° C | 36% | 1023.6 hPa | 0 mm | - | - | - |
| 1778083409 | 26.67° C | 29% | 1023.5 hPa | 0 mm | - | - | - |
| 1778081610 | 26.11° C | 31% | 1023.1 hPa | 0 mm | - | - | - |
| 1778079809 | 26.11° C | 33% | 1022.8 hPa | 0 mm | - | - | - |
| 1778078009 | 25° C | 33% | 1022.7 hPa | 0 mm | - | - | - |
| 1778076210 | 26.67° C | 31% | 1022.6 hPa | 0 mm | - | - | - |
| 1778074410 | 27.78° C | 29% | 1022.4 hPa | 0 mm | - | - | - |
| 1778072609 | 25.56° C | 32% | 1022.1 hPa | 0 mm | - | - | - |
| 1778070808 | 25.56° C | 35% | 1021.9 hPa | 0 mm | - | - | - |
| 1778069008 | 25° C | 38% | 1021.7 hPa | 0 mm | - | - | - |
* Rain latest hour (hover to see other rain measurements)
** Current wind speed in m/s (hover to see current wind gust speed)